Impacts TAF Board INFO
FOR SITUATIONAL AWARENESS. NOT TO BE USED FOR FLIGHT PLANNING PURPOSES.
IDs:

KFLL - Ft Lauderdale-Hollyw, FL, US

Issued at 1720 UTC 20 Jan 2018
Updated at 1858 UTC 20 Jan 2018
Potential Impact None Slight Moderate High
Time1853Z 20/19Z 20/20Z 20/21Z 20/22Z 20/23Z 21/00Z 21/01Z 21/02Z 21/03Z 21/04Z 21/05Z 21/06Z 21/07Z>>
Type OBS PRVL PRVL PRVL PRVL PRVL PRVL PRVL PRVL PRVL PRVL PRVL PRVL PRVL
VIS 10 >6 >6 >6 >6 >6 >6 >6 >6 >6 >6 >6 >6 >6
CIG 36 35 35 35 35 35 250 250 250 250 250 250 250 250
Cover OVC BKN BKN BKN BKN BKN BKN BKN BKN BKN BKN BKN BKN BKN
FltCat VFR VFR VFR VFR VFR VFR VFR VFR VFR VFR VFR VFR VFR VFR
WX -- -- -- -- -- -- -- -- -- -- -- -- -- --
WDir 130 90 90 90 90 90 50 50 50 50 50 50 50 50
WSpd 9 8 8 8 8 8 5 5 5 5 5 5 5 5
WGst -- -- -- -- -- -- -- -- -- -- -- -- -- --

Raw TAF
KFLL 201720Z 2018/2124 09008KT P6SM BKN035 BKN050
  FM210000 05005KT P6SM SCT030 SCT060 BKN250
  FM211300 09011KT P6SM SCT035 BKN060
  FM211700 09015KT P6SM SCT035 BKN060


Raw METAR
KFLL 201853Z 13009KT 10SM BKN036 OVC047 22/16 A3019 RMK AO2 SLP224 T02170156
KFLL 201835Z 12010KT 10SM BKN033 OVC044 22/16 A3020 RMK AO2 T02170156
KFLL 201803Z 08008KT 10SM BKN028 OVC041 22/17 A3021 RMK AO2 T02170172
KFLL 201753Z 10010KT 10SM FEW025 SCT034 BKN050 OVC250 22/17 A3021 RMK AO2 SLP230 T02170167 10228 20189 58013
KFLL 201653Z 09007KT 10SM BKN032 BKN049 OVC250 22/16 A3024 RMK AO2 SLP239 T02220161
KFLL 201553Z 09009KT 10SM FEW028 FEW034 BKN050 BKN250 22/16 A3024 RMK AO2 SLP241 T02220161

METAR Board
Radar Display
Forecast Discussion

FOR SITUATIONAL AWARENESS. NOT TO BE USED FOR FLIGHT PLANNING PURPOSES.